Terminal Aerodrome Forecast
Issued by NWS

Home | Current Version | Previous Version | Text Only | Print | Product List | Glossary On
Versions: 1 2 3 4 5 6 7 8 9 10 11 12 13 14 15 16 17 18 19 20 21 22 23 24 25 26 27 28
000
FTAK31 PAFA 171128
TAFAUN
TAF
PAUN 171128Z 1712/1812 VRB04KT P6SM SCT015 BKN025 OVC035
     FM171500 30006KT 6SM -SN BR SCT015 BKN025 OVC035
     FM180000 30008KT 6SM -SHSN SCT015 BKN035 OVC050=

USA.gov is the U.S. government's official web portal to all federal, state and local government web resources and services.